Old Union, Texas
Current Conditions -  °F | °C
As of 4:35 AM on Thursday 29 Jan 2015 (Local Time) from KLXY Reporting Station
Clear Clear  
Wind Chill: 51°   Ceiling: Unl
Heat Index: 51°   Visibility: 10mi
Dew Point: 49°   Wind: 7mph
Humidity: 90%   Direction: 190°S
Pressure: 30.11"   Gusts: NA
Location:  31.4027°N, 96.4988°W
Report Text: KLXY 291035Z AUTO 19006KT 10SM CLR 11/09 A3011 RMK AO2 T01080092
Loading
Personal Weather Stations






























Interactive Weather Map New forecast layout! Learn more

10-Day Weather Forecast

Advertisements
Track Severe Weather on mobile